Time;durP1;ratioP1;P1;durP2;ratioP2;P2;SDS_P1;SDS_P2;PMS_P1;PMS_P2;Temp;Humidity;BMP_temperature;BMP_pressure;BME280_temperature;BME280_humidity;BME280_pressure;Samples;Min_cycle;Max_cycle;Signal;HPM_P1;HPM_P2
2023/01/19 00:01:55;;;;;;;45.50;16.93;;;;;;;10.91;100.00;99828.94;5056074;28;20044;-53
2023/01/19 00:04:20;;;;;;;34.17;17.47;;;;;;;10.13;100.00;99858.56;5058889;28;20283;-54
2023/01/19 00:06:46;;;;;;;38.83;17.00;;;;;;;11.09;100.00;99835.34;5059084;28;20065;-54
2023/01/19 00:09:11;;;;;;;42.57;16.20;;;;;;;11.04;100.00;99836.00;5061395;28;20286;-56
2023/01/19 00:11:37;;;;;;;40.83;16.33;;;;;;;10.78;100.00;99831.72;5057088;28;20038;-57
2023/01/19 00:14:03;;;;;;;38.75;17.73;;;;;;;11.03;100.00;99835.16;5062359;28;20089;-55
2023/01/19 00:16:28;;;;;;;37.45;16.20;;;;;;;11.02;100.00;99841.56;5060066;28;20078;-54
2023/01/19 00:18:54;;;;;;;34.55;15.77;;;;;;;11.01;100.00;99836.44;5063450;28;20041;-55
2023/01/19 00:21:23;;;;;;;33.87;16.63;;;;;;;11.27;100.00;99850.56;5064042;28;20033;-53
2023/01/19 00:23:51;;;;;;;36.45;16.48;;;;;;;11.36;100.00;99848.41;5060936;28;20025;-56
2023/01/19 00:26:17;;;;;;;41.13;17.48;;;;;;;10.97;100.00;99848.63;5059652;28;20033;-55
2023/01/19 00:28:43;;;;;;;33.70;16.23;;;;;;;10.41;100.00;99845.84;5059757;28;20492;-52
2023/01/19 00:31:10;;;;;;;35.58;16.65;;;;;;;10.68;100.00;99830.41;5065292;28;20065;-52
2023/01/19 00:33:36;;;;;;;38.63;16.60;;;;;;;10.58;100.00;99822.88;5058640;28;20126;-55
2023/01/19 00:36:03;;;;;;;37.08;17.27;;;;;;;10.51;100.00;99838.16;5062545;28;20036;-54
2023/01/19 00:38:29;;;;;;;34.00;16.90;;;;;;;10.89;100.00;99852.41;5062461;28;20034;-54
2023/01/19 00:40:55;;;;;;;35.40;17.83;;;;;;;10.93;100.00;99845.56;5055974;28;20097;-51
2023/01/19 00:43:20;;;;;;;32.30;17.80;;;;;;;11.13;100.00;99844.53;5059249;28;20052;-49
2023/01/19 00:45:46;;;;;;;37.10;17.60;;;;;;;11.19;100.00;99851.66;5059699;28;20040;-52
2023/01/19 00:48:11;;;;;;;39.28;16.00;;;;;;;10.60;100.00;99846.69;5057618;28;20040;-51
2023/01/19 00:50:37;;;;;;;25.93;11.93;;;;;;;11.29;100.00;99854.63;5061234;28;20037;-55
2023/01/19 00:53:02;;;;;;;31.40;13.30;;;;;;;10.72;100.00;99858.31;5056897;28;20049;-58
2023/01/19 00:55:30;;;;;;;37.75;14.98;;;;;;;10.18;100.00;99849.91;5061485;28;20064;-54
2023/01/19 00:57:56;;;;;;;36.03;16.00;;;;;;;10.60;100.00;99858.22;5058419;28;20092;-58
2023/01/19 01:00:21;;;;;;;30.63;14.45;;;;;;;10.92;100.00;99845.78;5066487;28;20037;-52
2023/01/19 01:02:49;;;;;;;35.67;14.07;;;;;;;10.41;100.00;99857.38;5057319;28;20061;-56
2023/01/19 01:05:15;;;;;;;42.28;13.25;;;;;;;10.06;100.00;99841.78;5056499;28;20072;-58
2023/01/19 01:07:43;;;;;;;28.60;12.77;;;;;;;9.97;100.00;99851.09;5062186;28;20032;-57
2023/01/19 01:10:12;;;;;;;27.30;11.85;;;;;;;9.69;100.00;99847.75;5061129;28;20099;-56
2023/01/19 01:12:37;;;;;;;38.00;13.82;;;;;;;9.72;100.00;99851.84;5058596;28;20028;-58
2023/01/19 01:15:05;;;;;;;30.65;13.68;;;;;;;9.78;100.00;99851.00;5063395;28;20033;-58
2023/01/19 01:17:31;;;;;;;28.45;12.00;;;;;;;9.96;100.00;99846.78;5057965;28;20037;-54
2023/01/19 01:19:56;;;;;;;31.73;14.07;;;;;;;10.47;100.00;99843.13;5063855;28;20139;-53
2023/01/19 01:22:22;;;;;;;29.27;13.03;;;;;;;9.78;100.00;99855.50;5062998;28;20079;-57
2023/01/19 01:24:47;;;;;;;33.37;14.00;;;;;;;9.88;100.00;99854.00;5058801;28;20274;-58
2023/01/19 01:27:13;;;;;;;38.00;14.73;;;;;;;9.29;100.00;99853.28;5057983;28;20032;-58
2023/01/19 01:29:40;;;;;;;40.20;14.13;;;;;;;9.72;100.00;99858.00;5061570;28;20286;-59
2023/01/19 01:32:06;;;;;;;30.90;12.93;;;;;;;9.66;100.00;99855.38;5057149;28;20037;-59
2023/01/19 01:34:32;;;;;;;30.60;12.80;;;;;;;9.96;100.00;99858.28;5059180;28;20100;-58
2023/01/19 01:36:57;;;;;;;32.42;14.40;;;;;;;9.90;100.00;99857.28;5059898;28;20060;-59
2023/01/19 01:39:23;;;;;;;28.27;12.73;;;;;;;9.72;100.00;99857.19;5061878;28;20033;-57
2023/01/19 01:41:48;;;;;;;35.63;14.47;;;;;;;9.75;100.00;99854.09;5054886;28;20274;-58
2023/01/19 01:44:48;;;;;;;21.53;11.17;;;;;;;10.50;100.00;99862.44;5057280;28;20104;-58
2023/01/19 01:47:23;;;;;;;28.60;12.98;;;;;;;9.72;100.00;99867.88;5062248;28;20271;-58
2023/01/19 01:49:52;;;;;;;33.13;15.43;;;;;;;9.49;100.00;99874.56;5057090;28;20029;-57
2023/01/19 01:52:19;;;;;;;31.98;13.65;;;;;;;9.51;100.00;99869.81;5055479;28;20119;-58
2023/01/19 01:54:44;;;;;;;31.48;16.13;;;;;;;9.96;100.00;99857.47;5060507;28;20544;-58
2023/01/19 01:57:11;;;;;;;27.50;12.87;;;;;;;9.10;100.00;99871.00;5058567;28;20043;-54
2023/01/19 01:59:44;;;;;;;30.45;13.73;;;;;;;8.93;100.00;99863.44;5062337;28;20060;-57
2023/01/19 02:05:09;;;;;;;40.38;16.02;;;;;;;9.89;100.00;99866.31;5060153;28;20025;-58
2023/01/19 02:13:20;;;;;;;33.53;13.32;;;;;;;9.80;100.00;99866.78;5056616;28;20053;-58
2023/01/19 02:16:12;;;;;;;28.95;13.07;;;;;;;10.71;100.00;99872.75;5060090;28;20081;-56
2023/01/19 02:18:38;;;;;;;24.42;12.32;;;;;;;9.94;100.00;99872.91;5056965;28;20051;-58
2023/01/19 02:21:12;;;;;;;31.73;12.48;;;;;;;10.31;100.00;99891.75;5063774;28;20033;-58
2023/01/19 02:23:49;;;;;;;17.95;9.52;;;;;;;9.56;100.00;99885.19;5055956;28;20037;-57
2023/01/19 02:26:22;;;;;;;19.45;9.77;;;;;;;10.25;100.00;99889.94;5056561;28;20033;-59
2023/01/19 02:28:58;;;;;;;15.95;7.88;;;;;;;10.02;100.00;99888.66;5059517;28;20037;-60
2023/01/19 02:31:25;;;;;;;15.85;7.10;;;;;;;10.46;100.00;99891.44;5054496;28;20055;-58
2023/01/19 02:33:53;;;;;;;18.23;6.60;;;;;;;10.87;100.00;99891.94;5056048;28;20049;-59
2023/01/19 02:36:27;;;;;;;12.80;5.32;;;;;;;10.26;100.00;99896.94;5058291;28;20037;-59
2023/01/19 02:38:55;;;;;;;20.58;6.70;;;;;;;10.87;100.00;99895.41;5055973;28;20029;-59
2023/01/19 02:41:27;;;;;;;30.20;7.55;;;;;;;11.22;100.00;99903.94;5051869;28;20045;-60
2023/01/19 02:43:54;;;;;;;29.15;7.35;;;;;;;10.61;100.00;99912.53;5056487;28;20029;-60
2023/01/19 02:46:19;;;;;;;42.42;7.55;;;;;;;11.05;100.00;99901.84;5060430;28;20084;-60
2023/01/19 02:48:45;;;;;;;28.33;8.03;;;;;;;11.19;100.00;99915.91;5058999;28;20029;-59
2023/01/19 02:51:12;;;;;;;29.80;5.97;;;;;;;10.39;100.00;99912.88;5053955;28;20271;-58
2023/01/19 02:53:57;;;;;;;23.92;5.65;;;;;;;11.07;100.00;99910.47;5062283;28;20052;-59
2023/01/19 02:56:59;;;;;;;6.50;1.88;;;;;;;10.64;100.00;99917.44;5072439;28;20037;-59
2023/01/19 02:59:36;;;;;;;4.85;1.95;;;;;;;10.86;100.00;99927.75;5058560;28;20021;-60
2023/01/19 03:02:15;;;;;;;4.28;1.55;;;;;;;10.21;100.00;99934.16;5059378;28;20075;-60
2023/01/19 03:05:05;;;;;;;4.47;1.58;;;;;;;10.53;100.00;99942.19;5059366;28;20041;-59
2023/01/19 03:07:43;;;;;;;2.38;0.95;;;;;;;10.13;100.00;99941.38;5057079;28;20037;-60
2023/01/19 03:10:32;;;;;;;6.15;1.52;;;;;;;11.13;100.00;99941.69;5055476;28;20124;-59
2023/01/19 03:13:02;;;;;;;4.25;1.38;;;;;;;10.96;100.00;99959.34;5057787;28;20040;-57
2023/01/19 03:15:35;;;;;;;3.53;1.60;;;;;;;11.37;100.00;99954.44;5059751;28;20029;-60
2023/01/19 03:18:06;;;;;;;11.20;2.15;;;;;;;10.41;100.00;99955.44;5052987;28;20084;-59
2023/01/19 03:20:31;;;;;;;16.02;2.17;;;;;;;10.81;100.00;99959.66;5055806;28;20041;-59
2023/01/19 03:23:03;;;;;;;3.63;1.00;;;;;;;10.02;100.00;99958.91;5058080;28;20089;-56
2023/01/19 03:25:33;;;;;;;3.00;1.17;;;;;;;10.06;100.00;99964.66;5056661;28;20033;-57
2023/01/19 03:28:00;;;;;;;2.47;1.20;;;;;;;10.44;100.00;99973.72;5058489;28;20059;-58
2023/01/19 03:30:31;;;;;;;2.47;1.20;;;;;;;9.85;100.00;99974.59;5055080;28;20040;-59
2023/01/19 03:33:07;;;;;;;2.33;1.30;;;;;;;10.17;100.00;99977.34;5057605;28;20034;-59
2023/01/19 03:35:46;;;;;;;3.38;1.38;;;;;;;10.39;100.00;99971.69;5057749;28;20037;-58
2023/01/19 03:38:15;;;;;;;7.43;1.38;;;;;;;10.62;100.00;99978.34;5059662;28;20117;-55
2023/01/19 03:40:42;;;;;;;11.30;2.30;;;;;;;10.41;100.00;99966.97;5059755;28;20030;-57
2023/01/19 03:43:09;;;;;;;13.30;2.88;;;;;;;9.53;100.00;99960.34;5062949;28;20037;-58
2023/01/19 03:45:37;;;;;;;29.52;6.25;;;;;;;9.69;100.00;99957.22;5057943;28;20040;-56
2023/01/19 03:48:04;;;;;;;12.45;3.55;;;;;;;9.89;100.00;99953.66;5058173;28;20033;-53
2023/01/19 03:50:30;;;;;;;1.98;0.70;;;;;;;9.78;100.00;99960.47;5062333;28;20048;-56
2023/01/19 03:53:16;;;;;;;3.15;1.50;;;;;;;10.07;100.00;99960.16;5060781;28;20052;-56
2023/01/19 03:55:45;;;;;;;6.82;0.80;;;;;;;10.37;100.00;99957.69;5056138;28;20041;-57
2023/01/19 03:58:10;;;;;;;1.98;0.77;;;;;;;10.70;100.00;99964.69;5062902;28;20025;-58
2023/01/19 04:00:36;;;;;;;2.70;0.80;;;;;;;10.27;100.00;99962.69;5066443;28;20067;-57
2023/01/19 04:03:03;;;;;;;7.40;1.70;;;;;;;10.51;100.00;99968.34;5058621;28;20033;-58
2023/01/19 04:05:29;;;;;;;16.92;3.65;;;;;;;10.25;100.00;99980.81;5064011;28;20037;-57
2023/01/19 04:07:55;;;;;;;32.40;6.00;;;;;;;10.58;100.00;99983.28;5066539;28;20051;-56
2023/01/19 04:10:21;;;;;;;24.13;5.27;;;;;;;10.35;100.00;100004.38;5059529;28;20041;-56
2023/01/19 04:12:47;;;;;;;17.67;3.33;;;;;;;10.15;100.00;99994.63;5059748;28;20064;-58
2023/01/19 04:15:12;;;;;;;7.85;3.05;;;;;;;10.04;100.00;99988.09;5061998;28;20053;-57
2023/01/19 04:17:39;;;;;;;4.53;1.07;;;;;;;10.13;100.00;99980.66;5057607;28;20050;-58
2023/01/19 04:20:05;;;;;;;3.95;1.10;;;;;;;10.05;100.00;99973.72;5063072;28;20030;-59
2023/01/19 04:22:31;;;;;;;;;;;;;;;9.79;100.00;99970.13;5065661;28;20037;-58
2023/01/19 04:24:56;;;;;;;5.23;1.27;;;;;;;9.74;100.00;99962.72;5060956;28;19985;-58
2023/01/19 04:27:22;;;;;;;3.10;1.13;;;;;;;9.58;100.00;99964.03;5058212;28;20048;-55
2023/01/19 04:29:48;;;;;;;4.50;1.23;;;;;;;9.61;100.00;99952.13;5060254;28;20046;-58
2023/01/19 04:32:13;;;;;;;3.33;0.90;;;;;;;10.00;100.00;99957.50;5065845;28;20071;-58
2023/01/19 04:34:39;;;;;;;5.43;1.45;;;;;;;10.22;100.00;99946.50;5060373;28;20037;-57
2023/01/19 04:37:05;;;;;;;2.60;1.20;;;;;;;9.79;100.00;99943.41;5060775;28;20085;-59
2023/01/19 04:39:31;;;;;;;4.68;1.40;;;;;;;9.99;100.00;99953.19;5063369;28;20035;-59
2023/01/19 04:41:56;;;;;;;5.13;1.73;;;;;;;9.69;100.00;99948.41;5063279;28;20056;-59
2023/01/19 04:44:22;;;;;;;6.90;1.47;;;;;;;10.14;100.00;99959.06;5062469;28;20285;-57
2023/01/19 04:46:50;;;;;;;4.35;1.38;;;;;;;10.55;100.00;99969.53;5057505;28;20162;-59
2023/01/19 04:49:16;;;;;;;5.78;1.60;;;;;;;10.66;100.00;99968.00;5061715;28;20134;-57
2023/01/19 04:51:42;;;;;;;14.50;3.50;;;;;;;10.83;100.00;99962.94;5060855;28;20036;-58
2023/01/19 04:54:09;;;;;;;18.60;4.53;;;;;;;10.23;100.00;99964.97;5060577;28;20415;-58
2023/01/19 04:56:34;;;;;;;;;;;;;;;9.59;100.00;99963.00;5058404;28;20057;-58
2023/01/19 04:59:00;;;;;;;4.07;1.17;;;;;;;10.04;100.00;99967.56;5061271;28;19972;-59
2023/01/19 05:01:26;;;;;;;3.60;1.07;;;;;;;10.15;100.00;99965.22;5060198;28;20033;-58
2023/01/19 05:03:52;;;;;;;9.35;1.35;;;;;;;10.69;100.00;99970.25;5059625;28;20037;-57
2023/01/19 05:06:17;;;;;;;4.00;1.17;;;;;;;10.40;100.00;99970.69;5056026;28;20040;-57
2023/01/19 05:08:43;;;;;;;2.05;0.73;;;;;;;10.23;100.00;99966.84;5059589;28;20055;-58
2023/01/19 05:11:09;;;;;;;1.77;0.82;;;;;;;10.57;100.00;99972.81;5044228;28;20059;-57
2023/01/19 05:13:35;;;;;;;3.17;1.40;;;;;;;10.24;100.00;99981.84;5057283;28;20040;-57
2023/01/19 05:16:01;;;;;;;3.33;0.90;;;;;;;10.58;100.00;99983.28;5062591;28;20040;-58
2023/01/19 05:18:27;;;;;;;9.55;1.45;;;;;;;10.67;100.00;99994.56;5062296;28;20029;-56
2023/01/19 05:20:54;;;;;;;8.65;1.60;;;;;;;11.18;100.00;99999.91;5061397;28;20037;-58
2023/01/19 05:23:20;;;;;;;7.80;2.05;;;;;;;11.23;100.00;100010.75;5063440;28;20028;-57
2023/01/19 05:25:46;;;;;;;6.07;2.47;;;;;;;10.37;100.00;100003.13;5059157;28;20026;-56
2023/01/19 05:28:11;;;;;;;16.00;2.60;;;;;;;10.83;100.00;100021.78;5067154;28;20278;-58
2023/01/19 05:30:37;;;;;;;10.07;2.63;;;;;;;10.19;100.00;100009.19;5059135;28;20048;-56
2023/01/19 05:33:02;;;;;;;11.37;3.10;;;;;;;9.98;100.00;100023.69;5055878;28;20046;-57
2023/01/19 05:35:28;;;;;;;19.63;4.15;;;;;;;10.96;100.00;100005.63;5057496;28;20029;-57
2023/01/19 05:37:54;;;;;;;11.68;2.58;;;;;;;10.99;100.00;100026.59;5059992;28;20045;-58
2023/01/19 05:40:19;;;;;;;12.03;3.03;;;;;;;11.31;100.00;100020.38;5057015;28;20029;-58
2023/01/19 05:42:44;;;;;;;44.47;12.07;;;;;;;10.91;100.00;100024.22;5062883;28;20033;-55
2023/01/19 05:45:11;;;;;;;40.50;10.03;;;;;;;11.68;100.00;100024.94;5062633;28;20040;-58
2023/01/19 05:47:38;;;;;;;22.30;4.82;;;;;;;11.70;100.00;100030.88;5065291;28;20037;-56
2023/01/19 05:50:04;;;;;;;12.55;2.83;;;;;;;10.70;100.00;100025.38;5058212;28;20055;-56
2023/01/19 05:52:30;;;;;;;14.82;4.07;;;;;;;10.76;100.00;100021.84;5062944;28;20030;-56
2023/01/19 05:54:55;;;;;;;24.17;8.70;;;;;;;11.00;100.00;100012.19;5058341;28;20039;-54
2023/01/19 05:57:22;;;;;;;60.10;9.47;;;;;;;11.70;100.00;100014.81;5061171;28;20030;-55
2023/01/19 05:59:47;;;;;;;27.95;7.47;;;;;;;10.99;100.00;100025.78;5062869;28;20270;-56
2023/01/19 06:02:13;;;;;;;24.20;5.87;;;;;;;10.85;100.00;100030.44;5060488;28;20064;-51
2023/01/19 06:04:38;;;;;;;11.32;4.00;;;;;;;11.15;100.00;100046.63;5060689;28;20402;-57
2023/01/19 06:07:05;;;;;;;19.43;3.00;;;;;;;10.76;100.00;100037.91;5059962;28;20052;-57
2023/01/19 06:09:31;;;;;;;9.00;3.75;;;;;;;10.78;100.00;100053.72;5060875;28;20117;-56
2023/01/19 06:11:58;;;;;;;9.30;3.13;;;;;;;11.22;100.00;100051.94;5060355;28;20097;-53
2023/01/19 06:14:25;;;;;;;15.20;3.45;;;;;;;10.98;100.00;100050.91;5062935;28;20036;-54
2023/01/19 06:16:51;;;;;;;9.93;3.72;;;;;;;10.84;100.00;100060.88;5059096;28;20037;-55
2023/01/19 06:19:17;;;;;;;9.65;3.05;;;;;;;11.00;100.00;100065.69;5058827;28;20048;-53
2023/01/19 06:21:48;;;;;;;16.00;4.50;;;;;;;11.02;100.00;100066.28;5057595;28;20041;-58
2023/01/19 06:24:15;;;;;;;8.55;3.35;;;;;;;10.16;100.00;100071.06;5055698;28;20045;-52
2023/01/19 06:26:42;;;;;;;10.93;4.13;;;;;;;10.39;100.00;100059.06;5056999;28;20040;-59
2023/01/19 06:29:09;;;;;;;14.85;4.00;;;;;;;10.28;100.00;100063.22;5063560;28;20128;-57
2023/01/19 06:31:35;;;;;;;18.73;3.65;;;;;;;10.40;100.00;100060.69;5061273;28;20058;-55
2023/01/19 06:34:00;;;;;;;14.63;4.70;;;;;;;10.31;100.00;100073.47;5058273;28;20045;-55
2023/01/19 06:36:26;;;;;;;10.30;5.13;;;;;;;10.48;100.00;100073.81;5058175;28;20292;-55
2023/01/19 06:38:51;;;;;;;16.80;5.53;;;;;;;11.42;100.00;100081.22;5057439;28;20036;-56
2023/01/19 06:41:17;;;;;;;15.40;4.30;;;;;;;10.57;100.00;100082.41;5059901;28;20305;-58
2023/01/19 06:43:42;;;;;;;13.47;4.20;;;;;;;10.88;100.00;100086.16;5056380;28;20056;-58
2023/01/19 06:46:08;;;;;;;14.20;3.38;;;;;;;10.03;100.00;100093.31;5059828;28;20052;-56
2023/01/19 06:48:33;;;;;;;8.47;3.27;;;;;;;10.28;100.00;100095.28;5057428;28;20044;-56
2023/01/19 06:50:59;;;;;;;13.87;3.90;;;;;;;10.68;100.00;100097.81;5062752;28;20278;-56
2023/01/19 06:53:26;;;;;;;41.40;4.93;;;;;;;10.64;100.00;100103.78;5057726;28;20032;-58
2023/01/19 06:55:52;;;;;;;9.68;2.60;;;;;;;10.15;100.00;100117.53;5056385;28;20033;-53
2023/01/19 06:58:18;;;;;;;9.43;3.22;;;;;;;10.79;100.00;100116.88;5059988;28;20036;-54
2023/01/19 07:00:44;;;;;;;11.05;2.90;;;;;;;10.98;100.00;100121.28;5060571;28;20041;-53
2023/01/19 07:03:18;;;;;;;8.00;3.30;;;;;;;10.01;100.00;100122.09;5056119;28;20029;-57
2023/01/19 07:05:43;;;;;;;19.63;4.78;;;;;;;10.53;100.00;100132.84;5053649;28;20329;-56
2023/01/19 07:08:09;;;;;;;14.13;4.20;;;;;;;10.46;100.00;100129.34;5057423;28;20041;-56
2023/01/19 07:10:35;;;;;;;13.85;4.15;;;;;;;10.24;100.00;100128.81;5057643;28;20033;-54
2023/01/19 07:13:01;;;;;;;18.90;4.88;;;;;;;10.39;100.00;100134.72;5057292;28;20045;-53
2023/01/19 07:15:26;;;;;;;14.23;4.73;;;;;;;9.90;100.00;100140.38;5059962;28;20052;-54
2023/01/19 07:17:52;;;;;;;15.20;4.67;;;;;;;9.81;100.00;100136.28;5058378;28;20028;-55
2023/01/19 07:20:18;;;;;;;18.27;5.27;;;;;;;9.90;100.00;100147.59;5062790;28;20278;-54
2023/01/19 07:22:45;;;;;;;11.35;5.00;;;;;;;10.17;100.00;100148.34;5061013;28;20033;-56
2023/01/19 07:25:11;;;;;;;31.35;6.40;;;;;;;10.01;100.00;100148.81;5063934;28;20044;-55
2023/01/19 07:27:37;;;;;;;18.80;6.95;;;;;;;10.75;100.00;100165.44;5062972;28;20492;-56
2023/01/19 07:30:03;;;;;;;21.20;7.20;;;;;;;10.49;100.00;100160.22;5064959;28;20128;-55
2023/01/19 07:32:29;;;;;;;18.67;7.75;;;;;;;10.38;100.00;100167.84;5061622;28;20044;-53
2023/01/19 07:34:54;;;;;;;23.38;8.13;;;;;;;10.31;100.00;100180.38;5058117;28;20041;-54
2023/01/19 07:37:20;;;;;;;20.37;8.30;;;;;;;10.17;100.00;100171.56;5062844;28;20038;-55
2023/01/19 07:39:46;;;;;;;32.30;9.25;;;;;;;10.19;100.00;100173.00;5056160;28;20033;-52
2023/01/19 07:42:12;;;;;;;32.77;11.77;;;;;;;10.51;100.00;100176.84;5058715;28;20037;-51
2023/01/19 07:44:37;;;;;;;28.50;9.97;;;;;;;10.62;100.00;100176.22;5058377;28;20041;-54
2023/01/19 07:47:05;;;;;;;23.33;9.43;;;;;;;10.49;100.00;100181.59;5059453;28;20120;-53
2023/01/19 07:49:30;;;;;;;30.88;10.15;;;;;;;10.37;100.00;100189.41;5057481;28;20033;-56
2023/01/19 07:51:56;;;;;;;25.02;11.18;;;;;;;10.25;100.00;100199.94;5058231;28;20055;-56
2023/01/19 07:54:21;;;;;;;22.90;11.35;;;;;;;10.37;100.00;100200.09;5053996;28;20036;-55
2023/01/19 07:56:47;;;;;;;24.50;10.23;;;;;;;10.07;100.00;100195.25;5060463;28;20034;-54
2023/01/19 07:59:13;;;;;;;34.63;10.90;;;;;;;10.83;100.00;100203.66;5063422;28;20048;-53
2023/01/19 08:01:39;;;;;;;27.83;12.23;;;;;;;10.47;100.00;100200.50;5059905;28;20044;-55
2023/01/19 08:04:05;;;;;;;32.30;12.90;;;;;;;10.47;100.00;100206.69;5065869;28;20037;-55
2023/01/19 08:06:36;;;;;;;32.58;12.00;;;;;;;10.67;100.00;100204.97;5064027;28;20033;-57
2023/01/19 08:09:04;;;;;;;33.15;12.38;;;;;;;11.32;100.00;100215.56;5059297;28;20044;-53
2023/01/19 08:11:30;;;;;;;35.97;11.90;;;;;;;11.27;100.00;100219.91;5061620;28;20049;-56
2023/01/19 08:13:56;;;;;;;24.13;11.48;;;;;;;11.07;100.00;100225.38;5061648;28;20044;-56
2023/01/19 08:16:21;;;;;;;30.97;11.87;;;;;;;11.40;100.00;100227.84;5057896;28;20033;-54
2023/01/19 08:18:47;;;;;;;44.63;13.43;;;;;;;10.88;100.00;100228.75;5061162;28;20033;-55
2023/01/19 08:21:13;;;;;;;55.03;13.80;;;;;;;11.53;100.00;100232.28;5058935;28;20029;-52
2023/01/19 08:23:38;;;;;;;45.47;15.37;;;;;;;11.93;100.00;100225.84;5064384;28;21002;-56
2023/01/19 08:26:28;;;;;;;49.67;12.80;;;;;;;11.99;100.00;100224.13;5060581;28;20278;-53
2023/01/19 08:28:56;;;;;;;36.63;10.00;;;;;;;12.24;100.00;100226.00;5056714;28;20093;-51
2023/01/19 08:31:23;;;;;;;40.17;8.93;;;;;;;12.37;100.00;100223.16;5059353;28;20037;-55
2023/01/19 08:33:48;;;;;;;25.40;4.72;;;;;;;12.43;100.00;100227.63;5062443;28;20055;-52
2023/01/19 08:36:14;;;;;;;31.98;6.32;;;;;;;13.12;100.00;100234.66;5061741;28;20061;-53
2023/01/19 08:38:42;;;;;;;22.60;7.17;;;;;;;13.32;100.00;100242.44;5061818;28;20033;-51
2023/01/19 08:41:08;;;;;;;27.10;6.95;;;;;;;13.39;98.87;100244.25;5064822;28;20282;-54
2023/01/19 08:43:34;;;;;;;44.63;10.15;;;;;;;13.08;100.00;100249.59;5063619;28;20055;-56
2023/01/19 08:45:59;;;;;;;39.70;7.97;;;;;;;12.47;100.00;100255.66;5065371;28;20029;-55
2023/01/19 08:48:25;;;;;;;38.10;7.93;;;;;;;12.45;100.00;100267.66;5063648;28;20361;-55
2023/01/19 08:50:51;;;;;;;30.17;7.23;;;;;;;12.46;100.00;100269.28;5057278;28;20049;-56
2023/01/19 08:53:18;;;;;;;39.25;7.07;;;;;;;12.58;100.00;100278.25;5055007;28;20040;-54
2023/01/19 08:55:43;;;;;;;45.03;10.43;;;;;;;13.23;100.00;100283.25;5059543;28;20033;-56
2023/01/19 08:58:09;;;;;;;41.88;9.20;;;;;;;12.97;100.00;100291.44;5062760;28;20044;-52
2023/01/19 09:00:37;;;;;;;48.47;9.13;;;;;;;12.55;100.00;100296.66;5057578;28;20038;-57
2023/01/19 09:03:05;;;;;;;42.92;9.35;;;;;;;11.70;100.00;100304.09;5059875;28;20052;-52
2023/01/19 09:05:34;;;;;;;43.30;10.27;;;;;;;12.84;100.00;100302.31;5058496;28;20030;-54
2023/01/19 09:08:01;;;;;;;37.75;9.13;;;;;;;12.82;100.00;100309.78;5057304;28;20062;-54
2023/01/19 09:10:30;;;;;;;16.85;5.07;;;;;;;11.89;100.00;100308.50;5056856;28;20037;-53
2023/01/19 09:12:57;;;;;;;28.08;7.55;;;;;;;12.34;100.00;100304.06;5056690;28;20045;-53
2023/01/19 09:15:22;;;;;;;40.22;9.32;;;;;;;12.79;100.00;100289.56;5059853;28;20044;-53
2023/01/19 09:17:48;;;;;;;39.97;8.43;;;;;;;12.82;100.00;100299.03;5057989;28;20060;-54
2023/01/19 09:20:13;;;;;;;26.73;5.07;;;;;;;12.68;100.00;100293.81;5062258;28;20033;-56
2023/01/19 09:22:39;;;;;;;26.37;7.60;;;;;;;12.91;100.00;100298.53;5058817;28;20052;-51
2023/01/19 09:25:06;;;;;;;21.53;5.80;;;;;;;13.13;100.00;100295.38;5065171;28;20284;-59
2023/01/19 09:27:32;;;;;;;25.08;6.90;;;;;;;13.32;99.05;100298.84;5059980;28;20043;-54
2023/01/19 09:29:58;;;;;;;35.25;8.00;;;;;;;13.64;99.48;100297.81;5059654;28;20041;-55
2023/01/19 09:32:23;;;;;;;15.93;4.67;;;;;;;14.65;94.27;100308.78;5059744;28;20045;-54
2023/01/19 09:34:49;;;;;;;22.80;4.63;;;;;;;13.88;94.50;100314.84;5058895;28;20057;-53
2023/01/19 09:37:15;;;;;;;13.83;3.07;;;;;;;14.75;92.52;100315.25;5061145;28;20033;-55
2023/01/19 09:39:41;;;;;;;14.25;2.78;;;;;;;15.11;88.48;100320.59;5057688;28;20094;-56
2023/01/19 09:42:29;;;;;;;11.48;3.78;;;;;;;15.98;86.06;100330.53;5057200;28;20034;-57
2023/01/19 09:44:54;;;;;;;21.10;3.97;;;;;;;14.74;89.79;100329.75;5055390;28;20041;-54
2023/01/19 09:47:29;;;;;;;16.50;4.27;;;;;;;13.60;93.69;100327.00;5055905;28;20037;-55
2023/01/19 09:50:02;;;;;;;19.15;4.75;;;;;;;14.24;95.22;100328.34;5055960;28;20045;-54
2023/01/19 09:52:33;;;;;;;20.02;5.10;;;;;;;14.49;93.15;100341.56;5058938;28;20029;-51
2023/01/19 09:54:59;;;;;;;28.70;5.15;;;;;;;13.38;98.07;100339.25;5063496;28;20096;-56
2023/01/19 09:57:26;;;;;;;13.07;5.53;;;;;;;13.48;99.20;100344.94;5061528;28;20043;-56
2023/01/19 09:59:56;;;;;;;22.48;6.28;;;;;;;13.84;98.39;100342.41;5057882;28;20044;-54
2023/01/19 10:02:35;;;;;;;28.77;6.10;;;;;;;13.85;97.37;100344.03;5057202;28;20045;-54
2023/01/19 10:05:15;;;;;;;20.17;5.80;;;;;;;13.99;98.57;100350.84;5065427;28;20040;-54
2023/01/19 10:07:54;;;;;;;17.20;6.05;;;;;;;13.60;98.64;100345.81;5056921;28;20029;-53
2023/01/19 10:10:44;;;;;;;18.15;5.97;;;;;;;13.56;100.00;100355.38;5062150;28;20041;-55
2023/01/19 10:13:45;;;;;;;28.10;8.05;;;;;;;13.29;100.00;100353.00;5054713;28;20101;-57
2023/01/19 10:16:40;;;;;;;25.83;6.38;;;;;;;14.46;97.81;100350.09;5055149;28;20052;-52
2023/01/19 10:19:22;;;;;;;21.30;6.15;;;;;;;16.59;88.50;100359.53;5055287;28;20093;-50
2023/01/19 10:21:50;;;;;;;17.23;6.57;;;;;;;17.32;83.30;100370.28;5060399;28;20037;-53
2023/01/19 10:24:15;;;;;;;20.85;6.85;;;;;;;16.63;82.88;100364.19;5057262;28;20064;-54
2023/01/19 10:26:51;;;;;;;14.87;4.83;;;;;;;15.62;85.73;100369.25;5055375;28;20049;-52
2023/01/19 10:29:34;;;;;;;16.92;4.90;;;;;;;15.30;87.88;100372.41;5057340;28;20201;-51
2023/01/19 10:32:12;;;;;;;15.20;5.27;;;;;;;16.73;85.03;100374.31;5058095;28;20037;-51
2023/01/19 10:34:39;;;;;;;17.13;4.77;;;;;;;16.84;81.40;100369.06;5057883;28;20310;-54
2023/01/19 10:37:35;;;;;;;13.45;4.20;;;;;;;17.31;84.12;100373.22;5056606;28;20266;-55
2023/01/19 10:40:10;;;;;;;14.33;5.07;;;;;;;18.89;75.59;100374.06;5055192;28;20033;-55
2023/01/19 10:42:38;;;;;;;13.57;4.87;;;;;;;18.76;76.46;100374.53;5054789;28;20273;-54
2023/01/19 10:45:18;;;;;;;21.20;4.57;;;;;;;18.75;72.21;100381.84;5056993;28;20271;-52
2023/01/19 10:47:45;;;;;;;10.93;3.87;;;;;;;18.87;72.56;100375.41;5058391;28;20275;-55
2023/01/19 10:50:31;;;;;;;22.80;4.60;;;;;;;19.37;71.47;100378.66;5055738;28;20274;-54
2023/01/19 10:53:03;;;;;;;14.70;4.63;;;;;;;20.11;69.91;100384.00;5059590;28;20041;-50
2023/01/19 10:55:37;;;;;;;14.67;4.60;;;;;;;20.01;67.46;100387.50;5057764;28;20033;-54
2023/01/19 10:58:04;;;;;;;27.83;4.73;;;;;;;21.12;65.53;100381.69;5055300;28;20278;-55
2023/01/19 11:00:33;;;;;;;14.70;4.73;;;;;;;21.23;64.07;100383.28;5054559;28;20327;-54
2023/01/19 11:03:00;;;;;;;11.97;4.20;;;;;;;20.01;65.81;100381.25;5057774;28;20267;-55
2023/01/19 11:05:28;;;;;;;16.70;4.78;;;;;;;20.34;66.33;100385.34;5061771;28;20338;-54
2023/01/19 11:07:55;;;;;;;22.13;4.63;;;;;;;19.07;66.71;100380.16;5059813;28;20041;-55
2023/01/19 11:10:28;;;;;;;14.57;4.63;;;;;;;20.62;64.47;100385.84;5058304;28;20295;-52
2023/01/19 11:13:02;;;;;;;16.07;4.10;;;;;;;19.98;63.78;100379.09;5055939;28;20273;-49
2023/01/19 11:15:30;;;;;;;23.13;4.67;;;;;;;20.62;63.82;100380.41;5061730;28;20032;-52
2023/01/19 11:17:56;;;;;;;17.23;4.03;;;;;;;21.82;63.81;100394.41;5054708;28;20044;-56
2023/01/19 11:20:27;;;;;;;18.30;4.82;;;;;;;21.82;61.77;100396.31;5056492;28;20037;-52
2023/01/19 11:23:27;;;;;;;19.43;4.63;;;;;;;20.23;61.90;100391.03;5058758;28;20038;-54
2023/01/19 11:25:56;;;;;;;11.30;3.83;;;;;;;22.16;59.86;100398.25;5051411;28;20048;-53
2023/01/19 11:28:32;;;;;;;12.60;4.43;;;;;;;22.45;54.62;100406.47;5052152;28;20033;-54
2023/01/19 11:31:01;;;;;;;15.00;4.22;;;;;;;21.49;59.51;100396.75;5055118;28;20059;-52